createdAt,value
2019-03-04T00:00:51.209Z,9.00
2019-03-04T00:01:51.194Z,8.20
2019-03-04T00:02:51.181Z,7.00
2019-03-04T00:03:51.172Z,7.90
2019-03-04T00:04:51.183Z,7.10
2019-03-04T00:05:51.146Z,7.90
2019-03-04T00:06:51.140Z,7.70
2019-03-04T00:07:51.123Z,8.60
2019-03-04T00:08:51.114Z,9.60
2019-03-04T00:09:51.116Z,7.90
2019-03-04T00:10:51.089Z,7.40
2019-03-04T00:11:51.084Z,6.90
2019-03-04T00:12:51.070Z,7.60
2019-03-04T00:13:51.064Z,7.80
2019-03-04T00:14:51.075Z,9.60
2019-03-04T00:15:51.036Z,8.20
2019-03-04T00:16:51.024Z,6.00
2019-03-04T00:17:51.030Z,7.40
2019-03-04T00:18:51.001Z,7.90
2019-03-04T00:19:51.007Z,8.70
2019-03-04T00:20:50.981Z,8.20
2019-03-04T00:21:50.976Z,7.10
2019-03-04T00:22:50.960Z,8.40
2019-03-04T00:23:50.950Z,10.50
2019-03-04T00:24:50.943Z,6.40
2019-03-04T00:25:51.901Z,8.60
2019-03-04T00:26:50.919Z,7.80
2019-03-04T00:27:50.899Z,9.20
2019-03-04T00:28:50.893Z,8.80
2019-03-04T00:29:50.891Z,7.10
2019-03-04T00:30:50.865Z,8.50
2019-03-04T00:31:50.856Z,5.70
2019-03-04T00:32:50.847Z,6.80
2019-03-04T00:33:50.834Z,6.70
2019-03-04T00:34:50.839Z,9.10
2019-03-04T00:35:50.809Z,8.60
2019-03-04T00:36:50.805Z,7.80
2019-03-04T00:37:50.797Z,5.20
2019-03-04T00:38:50.776Z,7.70
2019-03-04T00:39:50.779Z,6.70
2019-03-04T00:40:50.757Z,8.40
2019-03-04T00:41:50.743Z,7.40
2019-03-04T00:42:50.740Z,9.30
2019-03-04T00:43:50.725Z,8.20
2019-03-04T00:44:50.730Z,7.90
2019-03-04T00:45:50.699Z,7.70
2019-03-04T00:46:50.687Z,8.50
2019-03-04T00:47:50.689Z,7.60
2019-03-04T00:48:50.676Z,6.60
2019-03-04T00:49:50.674Z,9.10
2019-03-04T00:50:50.646Z,8.70
2019-03-04T00:51:50.628Z,10.40
2019-03-04T00:52:50.623Z,6.80
2019-03-04T00:53:50.611Z,8.00
2019-03-04T00:54:50.615Z,8.30
2019-03-04T00:55:50.588Z,8.30
2019-03-04T00:56:50.572Z,9.30
2019-03-04T00:57:50.570Z,5.70
2019-03-04T00:58:50.559Z,8.10
2019-03-04T00:59:50.554Z,7.50
2019-03-04T01:00:50.529Z,6.90
2019-03-04T01:01:50.518Z,8.30
2019-03-04T01:02:50.512Z,10.10
2019-03-04T01:03:50.498Z,7.00
2019-03-04T01:04:50.488Z,7.80
2019-03-04T01:05:50.481Z,8.50
2019-03-04T01:06:50.461Z,6.80
2019-03-04T01:07:50.455Z,6.60
2019-03-04T01:08:50.438Z,7.60
2019-03-04T01:09:50.428Z,7.40
2019-03-04T01:10:50.445Z,5.50
2019-03-04T01:11:50.423Z,6.90
2019-03-04T01:12:50.402Z,8.30
2019-03-04T01:13:50.383Z,7.00
2019-03-04T01:14:50.374Z,10.20
2019-03-04T01:15:50.379Z,10.70
2019-03-04T01:16:50.356Z,5.40
2019-03-04T01:17:50.348Z,5.50
2019-03-04T01:18:50.331Z,9.80
2019-03-04T01:19:50.318Z,6.20
2019-03-04T01:20:50.316Z,7.30
2019-03-04T01:21:50.295Z,7.70
2019-03-04T01:22:50.294Z,6.20
2019-03-04T01:23:51.533Z,8.80
2019-03-04T01:24:57.563Z,7.60
2019-03-04T01:27:00.310Z,4.90
2019-03-04T01:28:00.298Z,6.80
2019-03-04T01:29:00.051Z,6.60
2019-03-04T01:30:00.310Z,7.20
2019-03-04T01:31:00.318Z,9.70
2019-03-04T01:32:00.247Z,7.00
2019-03-04T01:33:00.267Z,9.70
2019-03-04T01:34:00.188Z,7.10
2019-03-04T01:35:00.309Z,7.30
2019-03-04T01:35:59.966Z,8.90
2019-03-04T01:37:07.218Z,6.50
2019-03-04T01:38:00.155Z,8.40
2019-03-04T01:38:59.914Z,8.50
2019-03-04T01:40:00.113Z,7.30
2019-03-04T01:41:00.152Z,6.90
2019-03-04T01:42:00.104Z,6.70
2019-03-04T01:43:00.106Z,8.30
2019-03-04T01:44:00.125Z,6.00
2019-03-04T01:45:00.104Z,6.20
2019-03-04T01:46:00.114Z,6.60
2019-03-04T01:47:00.036Z,5.70
2019-03-04T01:48:00.076Z,6.60
2019-03-04T01:49:00.087Z,7.80
2019-03-04T01:49:59.798Z,8.00
2019-03-04T01:51:00.080Z,8.40
2019-03-04T01:52:00.017Z,6.60
2019-03-04T01:53:00.018Z,7.80
2019-03-04T01:53:59.977Z,7.40
2019-03-04T01:55:00.003Z,7.20
2019-03-04T01:55:59.980Z,6.00
2019-03-04T01:56:59.970Z,7.10
2019-03-04T01:57:59.982Z,8.20
2019-03-04T01:58:59.950Z,8.30
2019-03-04T01:59:59.965Z,8.70
2019-03-04T02:00:59.708Z,7.80
2019-03-04T02:01:59.970Z,7.20
2019-03-04T02:02:59.955Z,9.60
2019-03-04T02:03:59.918Z,10.00
2019-03-04T02:04:59.882Z,8.00
2019-03-04T02:05:59.854Z,9.00
2019-03-04T02:06:59.872Z,7.60
2019-03-04T02:07:59.846Z,8.90
2019-03-04T02:08:59.784Z,6.20
2019-03-04T02:09:59.781Z,6.90
2019-03-04T02:10:59.820Z,5.90
2019-03-04T02:11:59.794Z,7.40
2019-03-04T02:12:59.779Z,7.80
2019-03-04T02:13:59.767Z,7.50
2019-03-04T02:14:59.761Z,9.50
2019-03-04T02:15:59.746Z,6.90
2019-03-04T02:16:59.784Z,9.90
2019-03-04T02:17:59.752Z,7.50
2019-03-04T02:18:59.759Z,9.70
2019-03-04T02:19:59.709Z,5.20
2019-03-04T02:20:59.695Z,9.10
2019-03-04T02:21:59.469Z,6.10
2019-03-04T02:22:59.677Z,10.20
2019-03-04T02:23:59.629Z,7.30
2019-03-04T02:24:59.610Z,6.20
2019-03-04T02:25:59.642Z,8.60
2019-03-04T02:26:59.670Z,5.60
2019-03-04T02:27:59.598Z,7.90
2019-03-04T02:28:59.594Z,8.00
2019-03-04T02:29:59.588Z,6.40
2019-03-04T02:30:59.599Z,7.80
2019-03-04T02:31:59.616Z,8.40
2019-03-04T02:32:59.534Z,9.00
2019-03-04T02:33:59.568Z,7.20
2019-03-04T02:34:59.317Z,6.70
2019-03-04T02:35:59.558Z,6.70
2019-03-04T02:36:59.510Z,8.90
2019-03-04T02:37:59.418Z,8.40
2019-03-04T02:38:59.483Z,7.40
2019-03-04T02:39:59.504Z,6.70
2019-03-04T02:40:59.514Z,8.20
2019-03-04T02:41:59.418Z,9.00
2019-03-04T02:42:59.189Z,7.10
2019-03-04T02:43:59.177Z,9.80
2019-03-04T02:44:59.165Z,5.80
2019-03-04T02:45:59.434Z,11.30
2019-03-04T02:46:59.408Z,8.50
2019-03-04T02:47:59.451Z,7.90
2019-03-04T02:48:59.367Z,8.90
2019-03-04T02:49:59.403Z,6.60
2019-03-04T02:50:59.391Z,6.90
2019-03-04T02:51:59.411Z,8.00
2019-03-04T02:52:59.063Z,8.40
2019-03-04T02:53:59.361Z,8.60
2019-03-04T02:54:59.346Z,6.60
2019-03-04T02:55:59.315Z,6.10
2019-03-04T02:56:59.392Z,7.20
2019-03-04T02:57:59.329Z,8.30
2019-03-04T02:58:59.001Z,7.20
2019-03-04T02:59:59.286Z,9.20
2019-03-04T03:00:59.182Z,8.20
2019-03-04T03:01:59.244Z,7.10
2019-03-04T03:02:59.202Z,6.30
2019-03-04T03:03:59.193Z,8.10
2019-03-04T03:04:59.198Z,8.20
2019-03-04T03:05:59.202Z,6.90
2019-03-04T03:06:59.171Z,7.30
2019-03-04T03:07:59.178Z,6.10
2019-03-04T03:08:59.142Z,6.20
2019-03-04T03:09:59.191Z,6.60
2019-03-04T03:10:59.137Z,8.00
2019-03-04T03:11:58.846Z,7.40
2019-03-04T03:12:59.172Z,8.20
2019-03-04T03:13:59.124Z,9.10
2019-03-04T03:14:59.063Z,5.10
2019-03-04T03:15:59.113Z,7.70
2019-03-04T03:16:59.080Z,7.60
2019-03-04T03:17:59.239Z,7.00
2019-03-04T03:18:59.054Z,6.10
2019-03-04T03:19:59.072Z,6.60
2019-03-04T03:20:58.985Z,7.20
2019-03-04T03:21:58.976Z,7.90
2019-03-04T03:22:59.035Z,8.00
2019-03-04T03:23:59.512Z,7.00
2019-03-04T03:24:58.962Z,8.90
2019-03-04T03:25:58.958Z,5.40
2019-03-04T03:26:58.920Z,6.30
2019-03-04T03:27:58.668Z,7.00
2019-03-04T03:28:58.914Z,7.80
2019-03-04T03:29:58.962Z,7.90
2019-03-04T03:30:58.616Z,7.50
2019-03-04T03:31:58.598Z,7.80
2019-03-04T03:32:58.622Z,6.10
2019-03-04T03:33:58.582Z,5.80
2019-03-04T03:34:58.585Z,7.80
2019-03-04T03:35:58.553Z,6.90
2019-03-04T03:36:58.550Z,7.20
2019-03-04T03:37:58.540Z,6.30
2019-03-04T03:38:58.519Z,6.90
2019-03-04T03:39:58.508Z,5.80
2019-03-04T03:40:58.499Z,8.50
2019-03-04T03:41:58.485Z,7.10
2019-03-04T03:42:58.487Z,6.90
2019-03-04T03:43:58.459Z,8.80
2019-03-04T03:44:58.455Z,6.90
2019-03-04T03:45:58.462Z,7.10
2019-03-04T03:46:58.428Z,7.30
2019-03-04T03:47:58.433Z,7.20
2019-03-04T03:48:58.406Z,9.00
2019-03-04T03:49:58.394Z,6.20
2019-03-04T03:50:58.381Z,8.30
2019-03-04T03:51:58.373Z,8.50
2019-03-04T03:52:58.375Z,7.00
2019-03-04T03:53:58.349Z,8.00
2019-03-04T03:54:58.342Z,6.60
2019-03-04T03:55:58.327Z,9.00
2019-03-04T03:56:58.315Z,6.40
2019-03-04T03:57:58.323Z,8.10
2019-03-04T03:58:58.298Z,8.00
2019-03-04T03:59:58.285Z,6.30
2019-03-04T04:00:58.272Z,7.70
2019-03-04T04:01:58.259Z,8.50
2019-03-04T04:02:58.260Z,5.90
2019-03-04T04:03:58.237Z,7.30
2019-03-04T04:04:58.222Z,7.00
2019-03-04T04:05:58.212Z,7.80
2019-03-04T04:06:58.200Z,6.20
2019-03-04T04:07:58.207Z,5.60
2019-03-04T04:08:58.176Z,7.70
2019-03-04T04:09:58.171Z,7.80
2019-03-04T04:10:58.161Z,6.80
2019-03-04T04:11:58.157Z,7.10
2019-03-04T04:12:58.145Z,7.70
2019-03-04T04:13:58.131Z,5.40
2019-03-04T04:14:58.109Z,7.40
2019-03-04T04:15:58.110Z,7.70
2019-03-04T04:16:58.087Z,6.60
2019-03-04T04:17:58.082Z,6.10
2019-03-04T04:18:58.068Z,5.30
2019-03-04T04:19:58.051Z,7.20
2019-03-04T04:20:58.042Z,8.30
2019-03-04T04:21:58.029Z,6.10
2019-03-04T04:22:58.036Z,5.70
2019-03-04T04:23:58.008Z,7.40
2019-03-04T04:24:57.995Z,7.40
2019-03-04T04:25:57.984Z,4.90
2019-03-04T04:26:57.974Z,7.10
2019-03-04T04:27:57.971Z,5.70
2019-03-04T04:28:57.948Z,6.80
2019-03-04T04:29:57.943Z,6.70
2019-03-04T04:30:57.934Z,5.00
2019-03-04T04:31:57.943Z,8.00
2019-03-04T04:32:57.925Z,7.00
2019-03-04T04:33:57.899Z,6.10
2019-03-04T04:34:57.878Z,7.00
2019-03-04T04:35:57.876Z,6.40
2019-03-04T04:36:57.863Z,5.30
2019-03-04T04:37:57.865Z,7.20
2019-03-04T04:38:57.837Z,7.60
2019-03-04T04:39:57.829Z,5.50
2019-03-04T04:40:57.814Z,6.30
2019-03-04T04:41:57.820Z,7.00
2019-03-04T04:42:57.802Z,6.70
2019-03-04T04:43:57.785Z,6.70
2019-03-04T04:44:57.829Z,6.00
2019-03-04T04:45:57.757Z,6.50
2019-03-04T04:46:57.747Z,5.80
2019-03-04T04:47:57.764Z,6.10
2019-03-04T04:48:57.723Z,5.60
2019-03-04T04:49:57.711Z,7.30
2019-03-04T04:50:57.698Z,6.30
2019-03-04T04:51:57.699Z,8.00
2019-03-04T04:52:57.696Z,7.80
2019-03-04T04:53:57.667Z,7.60
2019-03-04T04:54:57.655Z,6.40
2019-03-04T04:55:57.643Z,6.30
2019-03-04T04:56:57.632Z,6.00
2019-03-04T04:57:57.652Z,7.40
2019-03-04T04:58:57.609Z,7.60
2019-03-04T04:59:57.613Z,7.70
2019-03-04T05:00:57.584Z,8.00
2019-03-04T05:01:57.577Z,7.80
2019-03-04T05:02:57.565Z,7.30
2019-03-04T05:03:57.576Z,5.40
2019-03-04T05:04:57.544Z,7.40
2019-03-04T05:05:57.527Z,5.70
2019-03-04T05:06:57.522Z,7.90
2019-03-04T05:07:57.507Z,7.30
2019-03-04T05:08:57.514Z,7.40
2019-03-04T05:09:57.491Z,8.20
2019-03-04T05:10:57.472Z,7.00
2019-03-04T05:11:59.653Z,5.70
2019-03-04T05:12:57.447Z,6.40
2019-03-04T05:13:57.454Z,9.60
2019-03-04T05:14:57.427Z,9.00
2019-03-04T05:15:57.440Z,7.70
2019-03-04T05:16:57.402Z,6.70
2019-03-04T05:17:57.397Z,7.30
2019-03-04T05:18:57.390Z,7.20
2019-03-04T05:19:57.377Z,10.50
2019-03-04T05:20:57.366Z,7.70
2019-03-04T05:21:57.346Z,7.90
2019-03-04T05:22:57.335Z,9.50
2019-03-04T05:23:57.338Z,6.90
2019-03-04T05:24:57.320Z,7.20
2019-03-04T05:25:57.303Z,7.90
2019-03-04T05:26:57.292Z,6.90
2019-03-04T05:27:57.278Z,6.60
2019-03-04T05:28:57.279Z,7.10
2019-03-04T05:29:57.259Z,6.50
2019-03-04T05:30:57.249Z,5.60
2019-03-04T05:31:57.238Z,9.10
2019-03-04T05:32:57.220Z,5.90
2019-03-04T05:33:57.228Z,7.10
2019-03-04T05:34:57.198Z,6.50
2019-03-04T05:35:57.189Z,7.50
2019-03-04T05:36:57.181Z,6.50
2019-03-04T05:37:57.174Z,5.30
2019-03-04T05:38:57.169Z,6.00
2019-03-04T05:39:57.206Z,6.10
2019-03-04T05:40:57.136Z,7.10
2019-03-04T05:41:57.120Z,5.90
2019-03-04T05:42:57.114Z,8.10
2019-03-04T05:43:57.146Z,7.90
2019-03-04T05:44:57.089Z,6.70
2019-03-04T05:45:57.078Z,9.30
2019-03-04T05:46:57.060Z,6.50
2019-03-04T05:47:57.054Z,9.50
2019-03-04T05:48:57.054Z,5.30
2019-03-04T05:49:57.029Z,5.00
2019-03-04T05:50:57.018Z,6.70
2019-03-04T05:51:57.008Z,5.90
2019-03-04T05:52:57.004Z,7.10
2019-03-04T05:53:56.995Z,7.50
2019-03-04T05:54:56.974Z,6.60
2019-03-04T05:55:56.961Z,6.40
2019-03-04T05:56:56.956Z,6.10
2019-03-04T05:57:56.937Z,6.20
2019-03-04T05:58:56.939Z,5.90
2019-03-04T05:59:56.930Z,6.30
2019-03-04T06:00:56.911Z,5.70
2019-03-04T06:01:56.898Z,6.20
2019-03-04T06:02:56.885Z,6.60
2019-03-04T06:03:56.880Z,5.70
2019-03-04T06:04:56.865Z,6.30
2019-03-04T06:05:56.855Z,7.00
2019-03-04T06:06:56.840Z,7.20
2019-03-04T06:07:56.827Z,6.30
2019-03-04T06:08:56.822Z,8.10
2019-03-04T06:09:56.809Z,7.80
2019-03-04T06:10:56.795Z,6.10
2019-03-04T06:11:56.777Z,7.60
2019-03-04T06:12:58.882Z,6.60
2019-03-04T06:13:56.763Z,7.60
2019-03-04T06:14:56.754Z,8.70
2019-03-04T06:15:56.746Z,6.30
2019-03-04T06:16:56.726Z,6.20
2019-03-04T06:17:56.725Z,6.90
2019-03-04T06:18:56.710Z,7.70
2019-03-04T06:19:56.688Z,9.50
2019-03-04T06:20:56.675Z,5.90
2019-03-04T06:21:56.671Z,6.70
2019-03-04T06:22:56.652Z,7.00
2019-03-04T06:23:56.661Z,9.50
2019-03-04T06:24:56.663Z,10.20
2019-03-04T06:25:56.619Z,7.50
2019-03-04T06:26:56.618Z,7.80
2019-03-04T06:27:56.599Z,8.30
2019-03-04T06:28:56.613Z,8.30
2019-03-04T06:29:56.574Z,5.40
2019-03-04T06:30:56.565Z,7.20
2019-03-04T06:31:56.556Z,6.40
2019-03-04T06:32:56.546Z,6.50
2019-03-04T06:33:56.566Z,8.00
2019-03-04T06:34:56.521Z,6.00
2019-03-04T06:35:56.508Z,7.70
2019-03-04T06:36:56.500Z,6.90
2019-03-04T06:37:56.487Z,6.90
2019-03-04T06:38:56.480Z,7.10
2019-03-04T06:39:56.476Z,5.90
2019-03-04T06:40:56.448Z,7.20
2019-03-04T06:41:56.460Z,5.00
2019-03-04T06:42:56.426Z,5.60
2019-03-04T06:43:56.417Z,5.90
2019-03-04T06:44:56.415Z,6.80
2019-03-04T06:45:56.403Z,7.00
2019-03-04T06:46:56.382Z,6.20
2019-03-04T06:47:56.372Z,6.50
2019-03-04T06:48:56.360Z,7.80
2019-03-04T06:49:56.357Z,5.70
2019-03-04T06:50:56.334Z,5.10
2019-03-04T06:51:56.325Z,7.10
2019-03-04T06:52:56.317Z,5.90
2019-03-04T06:53:56.304Z,7.00
2019-03-04T06:54:56.305Z,8.20
2019-03-04T06:55:56.284Z,6.60
2019-03-04T06:56:56.269Z,5.50
2019-03-04T06:57:56.254Z,6.40
2019-03-04T06:58:56.253Z,6.90
2019-03-04T06:59:56.250Z,6.10
2019-03-04T07:00:56.231Z,5.70
2019-03-04T07:01:56.210Z,6.00
2019-03-04T07:02:56.200Z,7.50
2019-03-04T07:03:56.188Z,6.60
2019-03-04T07:04:56.194Z,4.60
2019-03-04T07:05:56.169Z,8.70
2019-03-04T07:06:56.156Z,5.70
2019-03-04T07:07:56.143Z,6.70
2019-03-04T07:08:56.137Z,6.50
2019-03-04T07:09:56.131Z,6.20
2019-03-04T07:10:56.112Z,4.90
2019-03-04T07:11:56.105Z,8.30
2019-03-04T07:12:56.118Z,4.50
2019-03-04T07:13:56.079Z,7.10
2019-03-04T07:14:56.080Z,6.80
2019-03-04T07:15:56.054Z,7.00
2019-03-04T07:16:56.058Z,8.00
2019-03-04T07:17:56.030Z,7.20
2019-03-04T07:18:56.019Z,7.40
2019-03-04T07:19:56.069Z,7.90
2019-03-04T07:20:56.001Z,7.30
2019-03-04T07:21:55.988Z,7.00
2019-03-04T07:22:56.001Z,7.60
2019-03-04T07:23:56.002Z,6.70
2019-03-04T07:25:03.275Z,6.00
2019-03-04T07:25:56.246Z,6.00
2019-03-04T07:26:56.192Z,6.80
2019-03-04T07:27:56.204Z,5.30
2019-03-04T07:28:56.225Z,7.50
2019-03-04T07:29:56.275Z,6.30
2019-03-04T07:30:56.078Z,6.70
2019-03-04T07:31:56.161Z,6.10
2019-03-04T07:32:55.904Z,6.30
2019-03-04T07:33:55.869Z,4.50
2019-03-04T07:34:55.878Z,5.80
2019-03-04T07:35:56.141Z,5.60
2019-03-04T07:36:56.072Z,4.80
2019-03-04T07:37:55.823Z,5.10
2019-03-04T07:38:56.091Z,4.80
2019-03-04T07:39:56.113Z,5.90
2019-03-04T07:40:56.022Z,5.80
2019-03-04T07:41:56.062Z,4.60
2019-03-04T07:42:56.051Z,5.20
2019-03-04T07:43:56.055Z,5.40
2019-03-04T07:44:56.050Z,5.40
2019-03-04T07:45:55.911Z,7.10
2019-03-04T07:46:56.391Z,9.10
2019-03-04T07:47:56.019Z,5.90
2019-03-04T07:48:55.987Z,5.00
2019-03-04T07:49:55.970Z,5.20
2019-03-04T07:50:55.668Z,4.50
2019-03-04T07:51:55.988Z,5.80
2019-03-04T07:52:55.829Z,4.30
2019-03-04T07:53:56.237Z,5.10
2019-03-04T07:54:55.963Z,5.40
2019-03-04T07:55:55.882Z,5.40
2019-03-04T07:56:55.894Z,6.00
2019-03-04T07:57:55.894Z,4.70
2019-03-04T07:58:55.815Z,5.30
2019-03-04T07:59:55.578Z,5.10
2019-03-04T08:00:56.348Z,7.20
2019-03-04T08:01:55.533Z,5.40
2019-03-04T08:02:55.567Z,5.90
2019-03-04T08:03:55.518Z,5.10
2019-03-04T08:04:55.511Z,5.90
2019-03-04T08:05:57.647Z,6.90
2019-03-04T08:06:55.477Z,5.90
2019-03-04T08:07:55.471Z,5.10
2019-03-04T08:08:55.449Z,7.10
2019-03-04T08:09:55.451Z,6.70
2019-03-04T08:10:55.432Z,5.20
2019-03-04T08:11:55.413Z,6.00
2019-03-04T08:12:55.408Z,5.60
2019-03-04T08:13:56.315Z,7.30
2019-03-04T08:14:55.419Z,5.70
2019-03-04T08:15:55.374Z,7.90
2019-03-04T08:16:57.392Z,5.70
2019-03-04T08:17:59.431Z,6.20
2019-03-04T08:18:56.834Z,4.10
2019-03-04T08:19:55.332Z,6.30
2019-03-04T08:20:55.355Z,5.80
2019-03-04T08:21:55.370Z,5.40
2019-03-04T08:22:55.294Z,8.10
2019-03-04T08:23:55.283Z,6.40
2019-03-04T08:24:55.267Z,6.40
2019-03-04T08:25:55.284Z,5.20
2019-03-04T08:26:55.243Z,7.00
2019-03-04T08:27:55.242Z,4.90
2019-03-04T08:28:55.244Z,5.90
2019-03-04T08:29:55.218Z,4.20
2019-03-04T08:30:55.222Z,7.40
2019-03-04T08:31:55.194Z,6.30
2019-03-04T08:32:55.181Z,4.50
2019-03-04T08:33:55.166Z,5.70
2019-03-04T08:34:55.155Z,5.70
2019-03-04T08:35:55.154Z,4.70
2019-03-04T08:36:55.209Z,4.80
2019-03-04T08:37:55.123Z,6.50
2019-03-04T08:38:55.115Z,6.40
2019-03-04T08:39:55.117Z,5.10
2019-03-04T08:40:55.106Z,4.90
2019-03-04T08:41:55.083Z,6.80
2019-03-04T08:42:55.071Z,4.90
2019-03-04T08:43:55.054Z,4.90
2019-03-04T08:44:55.041Z,4.30
2019-03-04T08:45:55.051Z,6.60
2019-03-04T08:46:55.023Z,4.60
2019-03-04T08:47:55.020Z,3.90
2019-03-04T08:48:55.067Z,5.30
2019-03-04T08:49:54.991Z,5.50
2019-03-04T08:50:54.992Z,5.90
2019-03-04T08:51:54.969Z,3.50
2019-03-04T08:52:54.952Z,4.20
2019-03-04T08:53:54.943Z,5.20
2019-03-04T08:54:54.933Z,4.70
2019-03-04T08:55:54.939Z,4.30
2019-03-04T08:57:03.626Z,5.60
2019-03-04T08:57:55.902Z,5.80
2019-03-04T08:58:54.889Z,6.00
2019-03-04T08:59:54.879Z,5.40
2019-03-04T09:00:54.881Z,5.50
2019-03-04T09:01:54.854Z,5.40
2019-03-04T09:02:54.844Z,6.70
2019-03-04T09:03:54.828Z,6.70
2019-03-04T09:04:54.882Z,5.70
2019-03-04T09:05:54.832Z,5.00
2019-03-04T09:06:54.809Z,4.70
2019-03-04T09:07:54.789Z,4.50
2019-03-04T09:08:54.772Z,4.10
2019-03-04T09:09:54.774Z,5.30
2019-03-04T09:10:54.769Z,4.00
2019-03-04T09:11:54.744Z,4.90
2019-03-04T09:12:54.727Z,5.60
2019-03-04T09:13:54.720Z,3.80
2019-03-04T09:14:54.708Z,5.30
2019-03-04T09:15:54.709Z,4.50
2019-03-04T09:16:54.689Z,6.70
2019-03-04T09:17:54.682Z,7.40
2019-03-04T09:18:54.664Z,6.70
2019-03-04T09:19:54.655Z,4.70
2019-03-04T09:20:54.700Z,3.30
2019-03-04T09:21:54.631Z,4.80
2019-03-04T09:22:54.624Z,4.70
2019-03-04T09:23:54.605Z,4.60
2019-03-04T09:24:54.594Z,6.80
2019-03-04T09:25:54.591Z,4.50
2019-03-04T09:26:54.586Z,4.80
2019-03-04T09:27:54.566Z,7.40
2019-03-04T09:28:54.584Z,5.80
2019-03-04T09:29:54.541Z,7.00
2019-03-04T09:30:54.543Z,6.20
2019-03-04T09:31:54.532Z,6.70
2019-03-04T09:32:54.515Z,5.50
2019-03-04T09:33:54.544Z,5.80
2019-03-04T09:34:54.480Z,7.30
2019-03-04T09:35:54.488Z,8.50
2019-03-04T09:36:54.482Z,7.60
2019-03-04T09:37:54.453Z,6.50
2019-03-04T09:38:54.448Z,6.30
2019-03-04T09:39:54.436Z,4.70
2019-03-04T09:40:54.421Z,4.30
2019-03-04T09:41:54.422Z,5.30
2019-03-04T09:42:54.395Z,5.10
2019-03-04T09:43:54.388Z,7.20
2019-03-04T09:44:54.372Z,5.30
2019-03-04T09:45:54.361Z,7.50
2019-03-04T09:46:54.363Z,6.30
2019-03-04T09:47:54.338Z,6.40
2019-03-04T09:48:54.329Z,4.70
2019-03-04T09:49:54.316Z,5.60
2019-03-04T09:50:54.314Z,9.50
2019-03-04T09:51:54.299Z,5.80
2019-03-04T09:52:54.287Z,5.80
2019-03-04T09:53:54.269Z,6.90
2019-03-04T09:54:54.256Z,5.90
2019-03-04T09:55:54.257Z,5.90
2019-03-04T09:56:54.250Z,5.60
2019-03-04T09:57:54.222Z,4.80
2019-03-04T09:58:54.215Z,6.10
2019-03-04T09:59:54.205Z,6.20
2019-03-04T10:00:59.950Z,6.70
2019-03-04T10:01:54.467Z,5.10
2019-03-04T10:02:56.885Z,5.40
2019-03-04T10:03:54.164Z,4.60
2019-03-04T10:04:54.249Z,6.10
2019-03-04T10:06:21.938Z,6.70
2019-03-04T10:06:54.983Z,7.30
2019-03-04T10:07:57.230Z,5.10
2019-03-04T10:08:54.940Z,5.10
2019-03-04T10:09:55.905Z,6.90
2019-03-04T10:10:57.860Z,5.10
2019-03-04T10:12:02.203Z,5.00
2019-03-04T10:12:54.076Z,4.80
2019-03-04T10:13:54.276Z,5.80
2019-03-04T10:14:54.037Z,5.90
2019-03-04T10:15:54.046Z,5.30
2019-03-04T10:16:54.018Z,5.60
2019-03-04T10:17:54.840Z,3.50
2019-03-04T10:18:54.051Z,5.20
2019-03-04T10:19:55.866Z,5.30
2019-03-04T10:21:08.878Z,5.80
2019-03-04T10:21:53.955Z,4.50
2019-03-04T10:22:53.958Z,7.40
2019-03-04T10:23:54.008Z,5.40
2019-03-04T10:24:54.154Z,5.20
2019-03-04T10:25:54.025Z,6.00
2019-03-04T10:26:54.841Z,3.90
2019-03-04T10:27:53.917Z,4.20
2019-03-04T10:28:53.884Z,3.70
2019-03-04T10:29:53.863Z,4.50
2019-03-04T10:30:53.849Z,6.10
2019-03-04T10:31:54.374Z,5.00
2019-03-04T10:32:53.827Z,4.30
2019-03-04T10:33:56.557Z,3.80
2019-03-04T10:34:53.812Z,6.10
2019-03-04T10:35:53.831Z,4.40
2019-03-04T10:36:53.783Z,3.80
2019-03-04T10:37:53.772Z,4.80
2019-03-04T10:38:54.477Z,6.80
2019-03-04T10:39:54.603Z,4.90
2019-03-04T10:40:58.023Z,3.60
2019-03-04T10:41:53.728Z,3.30
2019-03-04T10:42:55.077Z,4.20
2019-03-04T10:44:04.647Z,3.50
2019-03-04T10:44:54.549Z,4.80
2019-03-04T10:45:56.489Z,5.90
2019-03-04T10:46:53.669Z,4.00
2019-03-04T10:47:53.657Z,5.50
2019-03-04T10:48:56.851Z,4.10
2019-03-04T10:49:53.698Z,5.20
2019-03-04T10:50:54.420Z,4.20
2019-03-04T10:51:53.637Z,4.20
2019-03-04T10:53:00.378Z,3.20
2019-03-04T10:53:54.589Z,4.80
2019-03-04T10:54:56.152Z,3.70
2019-03-04T10:55:54.408Z,3.00
2019-03-04T10:56:53.679Z,4.10
2019-03-04T10:57:53.546Z,4.00
2019-03-04T10:58:53.946Z,4.00
2019-03-04T10:59:53.522Z,4.30
2019-03-04T11:01:00.416Z,4.50
2019-03-04T11:01:56.345Z,4.80
2019-03-04T11:03:19.351Z,4.50
2019-03-04T11:03:53.519Z,6.10
2019-03-04T11:05:00.387Z,4.00
2019-03-04T11:05:53.520Z,3.90
2019-03-04T11:06:55.485Z,3.60
2019-03-04T11:07:57.355Z,3.70
2019-03-04T11:08:56.029Z,4.50
2019-03-04T11:09:57.069Z,3.50
2019-03-04T11:10:53.398Z,3.40
2019-03-04T11:11:53.389Z,3.70
2019-03-04T11:12:54.856Z,4.70
2019-03-04T11:13:55.915Z,3.30
2019-03-04T11:15:17.038Z,3.30
2019-03-04T11:15:53.350Z,3.00
2019-03-04T11:16:53.335Z,5.60
2019-03-04T11:17:54.456Z,2.30
2019-03-04T11:18:53.315Z,3.50
2019-03-04T11:19:53.316Z,2.00
2019-03-04T11:20:53.280Z,7.30
2019-03-04T11:21:53.301Z,5.00
2019-03-04T11:22:53.275Z,5.40
2019-03-04T11:23:53.249Z,4.80
2019-03-04T11:24:53.300Z,2.30
2019-03-04T11:25:53.850Z,3.40
2019-03-04T11:26:53.219Z,17.50
2019-03-04T11:27:53.280Z,8.60
2019-03-04T11:28:53.194Z,24.60
2019-03-04T11:29:53.195Z,5.50
2019-03-04T11:30:53.228Z,7.60
2019-03-04T11:31:53.161Z,4.90
2019-03-04T11:32:56.003Z,4.80
2019-03-04T11:33:53.146Z,2.10
2019-03-04T11:34:53.144Z,2.30
2019-03-04T11:35:53.119Z,5.80
2019-03-04T11:36:53.107Z,2.40
2019-03-04T11:37:53.095Z,2.80
2019-03-04T11:38:53.076Z,5.00
2019-03-04T11:39:53.082Z,0.70
2019-03-04T11:40:53.058Z,5.20
2019-03-04T11:41:53.053Z,2.00
2019-03-04T11:42:53.112Z,4.50
2019-03-04T11:43:53.018Z,2.30
2019-03-04T11:44:53.514Z,2.30
2019-03-04T11:45:53.006Z,1.60
2019-03-04T11:46:52.991Z,2.40
2019-03-04T11:47:52.980Z,3.00
2019-03-04T11:48:53.016Z,2.40
2019-03-04T11:49:53.535Z,1.90
2019-03-04T11:50:52.950Z,2.60
2019-03-04T11:51:52.944Z,1.40
2019-03-04T11:52:52.927Z,1.70
2019-03-04T11:53:52.912Z,1.30
2019-03-04T11:54:52.908Z,1.20
2019-03-04T11:55:53.574Z,2.10
2019-03-04T11:56:52.883Z,1.90
2019-03-04T11:57:52.867Z,3.80
2019-03-04T11:58:52.857Z,1.60
2019-03-04T11:59:52.854Z,1.60
2019-03-04T12:00:52.833Z,2.20
2019-03-04T12:01:52.829Z,1.00
2019-03-04T12:02:52.808Z,0.80
2019-03-04T12:03:52.805Z,1.90
2019-03-04T12:04:52.802Z,1.30
2019-03-04T12:05:52.768Z,2.00
2019-03-04T12:06:52.762Z,1.10
2019-03-04T12:07:52.754Z,1.00
2019-03-04T12:08:52.737Z,1.00
2019-03-04T12:09:52.787Z,1.70
2019-03-04T12:10:52.716Z,1.10
2019-03-04T12:11:52.702Z,1.40
2019-03-04T12:12:52.692Z,2.10
2019-03-04T12:13:52.686Z,0.80
2019-03-04T12:14:52.708Z,4.70
2019-03-04T12:15:52.657Z,0.90
2019-03-04T12:16:52.682Z,1.20
2019-03-04T12:17:52.635Z,1.30
2019-03-04T12:18:52.626Z,1.40
2019-03-04T12:19:52.657Z,1.30
2019-03-04T12:20:52.626Z,1.50
2019-03-04T12:21:52.601Z,1.70
2019-03-04T12:22:52.584Z,2.10
2019-03-04T12:23:52.616Z,0.90
2019-03-04T12:24:55.453Z,0.80
2019-03-04T12:25:52.640Z,2.10
2019-03-04T12:26:59.902Z,1.00
2019-03-04T12:27:59.890Z,1.50
2019-03-04T12:28:54.380Z,0.50
2019-03-04T12:29:59.961Z,0.90
2019-03-04T12:30:52.721Z,1.20
2019-03-04T12:31:52.560Z,1.10
2019-03-04T12:32:52.554Z,2.60
2019-03-04T12:33:52.473Z,1.10
2019-03-04T12:34:52.718Z,1.00
2019-03-04T12:35:52.778Z,2.10
2019-03-04T12:36:52.450Z,1.00
2019-03-04T12:37:52.410Z,3.60
2019-03-04T12:38:52.395Z,1.90
2019-03-04T12:39:52.403Z,1.10
2019-03-04T12:40:52.423Z,1.50
2019-03-04T12:41:52.369Z,2.00
2019-03-04T12:42:52.360Z,1.70
2019-03-04T12:43:52.390Z,2.60
2019-03-04T12:44:52.331Z,1.40
2019-03-04T12:45:52.353Z,1.30
2019-03-04T12:46:52.322Z,2.50
2019-03-04T12:47:52.299Z,0.90
2019-03-04T12:48:52.318Z,1.80
2019-03-04T12:49:52.278Z,2.30
2019-03-04T12:50:53.256Z,1.60
2019-03-04T12:51:52.271Z,1.20
2019-03-04T12:52:52.285Z,1.80
2019-03-04T12:53:52.232Z,0.80
2019-03-04T12:54:52.223Z,1.90
2019-03-04T12:55:52.268Z,1.30
2019-03-04T12:56:52.205Z,1.40
2019-03-04T12:57:52.194Z,1.50
2019-03-04T12:58:52.210Z,1.60
2019-03-04T12:59:52.188Z,1.50
2019-03-04T13:00:52.171Z,1.00
2019-03-04T13:01:52.148Z,3.40
2019-03-04T13:02:57.642Z,1.80
2019-03-04T13:03:53.136Z,0.90
2019-03-04T13:04:52.105Z,1.80
2019-03-04T13:05:52.928Z,1.90
2019-03-04T13:06:52.080Z,1.70
2019-03-04T13:07:52.088Z,1.60
2019-03-04T13:08:52.063Z,1.80
2019-03-04T13:09:52.053Z,2.60
2019-03-04T13:10:52.056Z,3.00
2019-03-04T13:11:52.032Z,1.60
2019-03-04T13:12:52.018Z,3.80
2019-03-04T13:13:52.018Z,2.20
2019-03-04T13:14:52.011Z,2.50
2019-03-04T13:15:51.995Z,2.10
2019-03-04T13:16:51.994Z,4.10
2019-03-04T13:17:51.960Z,2.00
2019-03-04T13:18:51.947Z,1.10
2019-03-04T13:19:51.954Z,1.90